Time;durP1;ratioP1;P1;durP2;ratioP2;P2;SDS_P1;SDS_P2;PMS_P1;PMS_P2;Temp;Humidity;BMP_temperature;BMP_pressure;BME280_temperature;BME280_humidity;BME280_pressure;Samples;Min_cycle;Max_cycle;Signal;HPM_P1;HPM_P2
2022/04/18 00:01:54;;;;;;;11.05;3.67;;;9.30;67.60;;;;;;4988698;28;20042;-65
2022/04/18 00:04:19;;;;;;;12.55;4.03;;;9.20;67.40;;;;;;4988123;28;20037;-66
2022/04/18 00:06:45;;;;;;;14.68;3.75;;;9.20;67.70;;;;;;4987296;28;20034;-65
2022/04/18 00:09:11;;;;;;;10.77;3.63;;;9.20;67.80;;;;;;4987709;28;20030;-65
2022/04/18 00:11:37;;;;;;;9.48;3.63;;;9.20;68.00;;;;;;4988039;28;20401;-65
2022/04/18 00:14:02;;;;;;;11.85;3.45;;;9.20;67.80;;;;;;4982067;28;20046;-65
2022/04/18 00:16:28;;;;;;;9.07;3.58;;;9.20;67.90;;;;;;4987337;28;20077;-65
2022/04/18 00:18:54;;;;;;;9.02;3.28;;;9.10;68.40;;;;;;4986902;28;20030;-65
2022/04/18 00:21:20;;;;;;;8.45;3.70;;;9.00;68.80;;;;;;4987305;28;20584;-65
2022/04/18 00:23:46;;;;;;;8.32;3.00;;;9.00;68.70;;;;;;4984747;28;20030;-65
2022/04/18 00:26:12;;;;;;;7.32;2.60;;;8.90;69.10;;;;;;4988382;28;20572;-63
2022/04/18 00:28:38;;;;;;;6.38;2.55;;;9.00;69.30;;;;;;4986334;28;20026;-65
2022/04/18 00:31:04;;;;;;;8.23;2.78;;;9.00;69.30;;;;;;4986458;28;20050;-65
2022/04/18 00:33:30;;;;;;;8.18;3.88;;;9.00;69.30;;;;;;4981582;28;20033;-65
2022/04/18 00:35:56;;;;;;;10.13;3.40;;;8.90;69.90;;;;;;4988219;28;20054;-65
2022/04/18 00:38:23;;;;;;;8.18;2.97;;;8.90;69.40;;;;;;4987808;28;20469;-65
2022/04/18 00:40:49;;;;;;;10.27;3.10;;;8.90;69.90;;;;;;5003607;28;20117;-65
2022/04/18 00:43:14;;;;;;;7.47;2.88;;;8.90;69.70;;;;;;4988274;28;20298;-65
2022/04/18 00:45:40;;;;;;;7.97;3.08;;;8.90;69.80;;;;;;4985525;28;20030;-65
2022/04/18 00:48:06;;;;;;;10.30;3.10;;;8.80;70.10;;;;;;4987193;28;20022;-65
2022/04/18 00:50:34;;;;;;;7.47;2.55;;;8.80;70.00;;;;;;4987688;28;20494;-65
2022/04/18 00:53:00;;;;;;;9.15;3.33;;;8.70;70.40;;;;;;4983855;28;20030;-65
2022/04/18 00:55:27;;;;;;;6.72;2.53;;;8.70;71.10;;;;;;4986882;28;20044;-65
2022/04/18 00:57:54;;;;;;;7.45;2.67;;;8.60;71.50;;;;;;4981585;28;20449;-65
2022/04/18 01:00:20;;;;;;;7.28;2.58;;;8.60;71.40;;;;;;4984645;28;20034;-65
2022/04/18 01:02:46;;;;;;;8.25;2.58;;;8.60;71.50;;;;;;4987843;28;20065;-65
2022/04/18 01:05:12;;;;;;;6.53;2.72;;;8.60;71.70;;;;;;4988270;28;20517;-66
2022/04/18 01:07:39;;;;;;;8.98;3.00;;;8.50;71.50;;;;;;4981708;28;20442;-65
2022/04/18 01:10:06;;;;;;;5.90;2.22;;;8.50;71.60;;;;;;4984178;28;20030;-65
2022/04/18 01:12:31;;;;;;;3.80;1.83;;;8.40;72.10;;;;;;4980594;28;20394;-65
2022/04/18 01:14:57;;;;;;;7.65;2.70;;;8.50;72.20;;;;;;4988093;28;20023;-65
2022/04/18 01:17:23;;;;;;;8.82;2.50;;;8.50;72.00;;;;;;4986802;28;20045;-65
2022/04/18 01:19:48;;;;;;;7.10;2.33;;;8.40;72.50;;;;;;4987894;28;20041;-65
2022/04/18 01:22:14;;;;;;;6.68;2.70;;;8.30;72.70;;;;;;4987161;28;20034;-65
2022/04/18 01:30:11;;;;;;;4.68;2.13;;;8.40;72.30;;;;;;4987484;28;20052;-65
2022/04/18 01:32:36;;;;;;;6.90;2.58;;;8.40;72.50;;;;;;4986148;28;20121;-64
2022/04/18 01:35:03;;;;;;;7.75;2.40;;;8.40;72.20;;;;;;4986814;28;20529;-65
2022/04/18 01:37:29;;;;;;;4.07;1.67;;;8.40;72.00;;;;;;4985283;28;20022;-65
2022/04/18 01:39:55;;;;;;;7.18;2.35;;;8.30;72.20;;;;;;4987684;28;20105;-65
2022/04/18 01:42:21;;;;;;;8.20;2.17;;;8.40;72.20;;;;;;4983276;28;20078;-65
2022/04/18 01:44:47;;;;;;;11.18;2.78;;;8.30;72.50;;;;;;4986818;28;20029;-65
2022/04/18 01:47:12;;;;;;;5.10;2.15;;;8.10;73.20;;;;;;4985458;28;20109;-65
2022/04/18 01:49:38;;;;;;;6.78;2.92;;;8.00;73.30;;;;;;4986667;28;20097;-65
2022/04/18 01:52:04;;;;;;;6.22;2.42;;;8.10;73.40;;;;;;4988208;28;20026;-65
2022/04/18 01:54:29;;;;;;;7.22;2.28;;;7.90;74.10;;;;;;4986733;28;20109;-65
2022/04/18 01:56:55;;;;;;;6.13;2.25;;;7.90;74.10;;;;;;4985195;28;20034;-65
2022/04/18 01:59:21;;;;;;;5.85;2.10;;;7.80;74.80;;;;;;4987669;28;20030;-65
2022/04/18 02:01:46;;;;;;;3.63;1.73;;;7.70;74.90;;;;;;4991113;28;20066;-65
2022/04/18 02:04:12;;;;;;;7.63;2.20;;;7.50;75.40;;;;;;4991249;28;20033;-65
2022/04/18 02:06:37;;;;;;;6.50;2.17;;;7.40;75.90;;;;;;4989101;28;20014;-65
2022/04/18 02:09:03;;;;;;;6.30;1.95;;;7.40;75.50;;;;;;4987898;28;20367;-65
2022/04/18 02:11:29;;;;;;;4.88;2.00;;;7.30;76.00;;;;;;4991003;28;20129;-65
2022/04/18 02:13:55;;;;;;;4.80;2.20;;;7.50;75.80;;;;;;4990554;28;20610;-65
2022/04/18 02:16:21;;;;;;;8.30;2.53;;;7.40;76.60;;;;;;4990552;28;20022;-65
2022/04/18 02:18:47;;;;;;;5.82;2.17;;;7.30;78.20;;;;;;4990846;28;20035;-65
2022/04/18 02:21:12;;;;;;;7.18;2.45;;;7.20;78.50;;;;;;4989956;28;20509;-65
2022/04/18 02:23:41;;;;;;;5.65;1.98;;;7.30;77.00;;;;;;4990338;28;20041;-64
2022/04/18 02:26:08;;;;;;;6.72;2.00;;;7.40;78.30;;;;;;4989028;28;20909;-65
2022/04/18 02:28:33;;;;;;;5.28;2.33;;;7.20;79.10;;;;;;4981917;28;20029;-65
2022/04/18 02:30:59;;;;;;;4.72;2.05;;;7.10;79.30;;;;;;4991016;28;20042;-65
2022/04/18 02:33:24;;;;;;;4.18;1.95;;;6.80;80.30;;;;;;4988146;28;20121;-65
2022/04/18 02:35:50;;;;;;;5.82;1.90;;;6.80;80.10;;;;;;4999119;28;20029;-65
2022/04/18 02:38:16;;;;;;;8.07;1.92;;;6.60;81.90;;;;;;4988267;28;20665;-65
2022/04/18 02:40:43;;;;;;;4.30;1.65;;;6.60;81.60;;;;;;4989401;28;20096;-65
2022/04/18 02:43:09;;;;;;;6.45;1.98;;;6.40;82.40;;;;;;4986625;28;20636;-65
2022/04/18 02:45:34;;;;;;;5.88;2.05;;;6.20;84.60;;;;;;4989432;28;20101;-65
2022/04/18 02:48:01;;;;;;;6.72;2.28;;;6.30;85.70;;;;;;4989023;28;20053;-65
2022/04/18 02:50:27;;;;;;;6.13;2.17;;;6.50;84.90;;;;;;4989579;28;20034;-65
2022/04/18 02:52:53;;;;;;;3.55;1.65;;;6.40;84.90;;;;;;4990142;28;20406;-65
2022/04/18 02:55:19;;;;;;;6.15;2.00;;;6.40;84.70;;;;;;4987191;28;20093;-65
2022/04/18 02:57:44;;;;;;;5.05;2.13;;;6.30;85.50;;;;;;4984943;28;20026;-65
2022/04/18 03:00:11;;;;;;;5.25;1.95;;;6.00;86.00;;;;;;4990606;28;20031;-65
2022/04/18 03:02:38;;;;;;;7.07;2.20;;;5.80;86.90;;;;;;4988822;28;20057;-65
2022/04/18 03:05:06;;;;;;;4.18;1.70;;;5.70;87.60;;;;;;4990217;28;20034;-65
2022/04/18 03:07:33;;;;;;;5.05;2.28;;;5.60;88.80;;;;;;4987424;28;20030;-65
2022/04/18 03:09:59;;;;;;;4.90;1.98;;;5.60;90.00;;;;;;4989130;28;20110;-65
2022/04/18 03:12:24;;;;;;;3.75;1.50;;;5.50;90.30;;;;;;4989677;28;20164;-65
2022/04/18 03:14:51;;;;;;;5.95;1.95;;;;;;;;;;4987010;28;20058;-65
2022/04/18 03:17:17;;;;;;;5.65;2.13;;;5.30;91.30;;;;;;4990035;28;20026;-65
2022/04/18 03:19:43;;;;;;;5.63;1.98;;;5.10;91.70;;;;;;4988997;28;20101;-65
2022/04/18 03:22:08;;;;;;;6.35;1.52;;;5.20;92.50;;;;;;4982009;28;20039;-65
2022/04/18 03:24:34;;;;;;;5.00;2.10;;;5.00;92.70;;;;;;4987151;28;20076;-65
2022/04/18 03:27:01;;;;;;;6.32;2.08;;;5.10;94.30;;;;;;4987641;28;20030;-65
2022/04/18 03:29:26;;;;;;;3.60;1.67;;;5.10;93.80;;;;;;4988558;28;20141;-65
2022/04/18 03:31:53;;;;;;;4.65;2.00;;;5.10;93.30;;;;;;5004741;28;20561;-65
2022/04/18 03:34:19;;;;;;;7.05;2.45;;;4.90;93.80;;;;;;4989045;28;20026;-65
2022/04/18 03:42:13;;;;;;;3.47;1.85;;;4.90;95.10;;;;;;4986568;28;20030;-65
2022/04/18 03:44:42;;;;;;;4.93;1.95;;;4.90;94.40;;;;;;4988542;28;20406;-65
2022/04/18 03:47:11;;;;;;;4.32;1.98;;;4.80;95.50;;;;;;4984343;28;20061;-65
2022/04/18 03:49:38;;;;;;;4.10;2.10;;;4.80;95.80;;;;;;4987484;28;20474;-66
2022/04/18 03:52:04;;;;;;;5.75;2.10;;;4.70;96.60;;;;;;4986055;28;20023;-65
2022/04/18 03:54:29;;;;;;;3.47;1.77;;;4.60;96.30;;;;;;4986969;28;20030;-65
2022/04/18 03:56:55;;;;;;;5.45;2.05;;;4.40;97.80;;;;;;4986695;28;20409;-65
2022/04/18 03:59:20;;;;;;;4.18;1.80;;;4.40;97.60;;;;;;4988793;28;20028;-65
2022/04/18 04:01:46;;;;;;;5.20;1.88;;;4.40;98.00;;;;;;4988325;28;20405;-65
2022/04/18 04:04:12;;;;;;;5.20;1.60;;;4.40;99.10;;;;;;4989067;28;20081;-65
2022/04/18 04:06:37;;;;;;;5.35;1.88;;;4.50;98.70;;;;;;4985715;28;20041;-65
2022/04/18 04:09:03;;;;;;;4.82;1.95;;;4.60;98.60;;;;;;4987979;28;20394;-65
2022/04/18 04:11:29;;;;;;;6.40;1.77;;;4.50;98.30;;;;;;4988146;28;20034;-65
2022/04/18 04:13:55;;;;;;;9.63;2.58;;;4.40;99.10;;;;;;4988240;28;20454;-65
2022/04/18 04:16:21;;;;;;;6.82;2.05;;;4.30;99.90;;;;;;4988788;28;20058;-65
2022/04/18 04:18:47;;;;;;;4.10;1.80;;;4.30;99.90;;;;;;4988468;28;20466;-65
2022/04/18 04:21:13;;;;;;;5.53;1.50;;;4.20;99.90;;;;;;4988304;28;20385;-65
2022/04/18 04:23:38;;;;;;;3.83;1.83;;;4.20;99.90;;;;;;4992732;28;20026;-65
2022/04/18 04:26:04;;;;;;;6.57;2.05;;;4.30;99.90;;;;;;4984868;28;20049;-65
2022/04/18 04:28:30;;;;;;;4.95;1.85;;;4.30;99.90;;;;;;4986226;28;20065;-65
2022/04/18 04:30:55;;;;;;;9.45;2.33;;;4.30;99.90;;;;;;4987938;28;20050;-65
2022/04/18 04:33:21;;;;;;;6.80;1.90;;;4.20;99.90;;;;;;4987668;28;20030;-65
2022/04/18 04:35:46;;;;;;;4.80;2.17;;;4.10;99.90;;;;;;4986110;28;20511;-65
2022/04/18 04:38:12;;;;;;;6.30;2.17;;;4.10;99.90;;;;;;4987623;28;20026;-65
2022/04/18 04:40:38;;;;;;;7.32;1.75;;;4.10;99.90;;;;;;4980856;28;20030;-65
2022/04/18 04:43:04;;;;;;;4.13;1.88;;;4.30;99.90;;;;;;4985616;28;20023;-65
2022/04/18 04:45:31;;;;;;;5.07;2.33;;;4.20;99.90;;;;;;4987493;28;20081;-65
2022/04/18 04:47:57;;;;;;;5.38;1.90;;;4.30;99.90;;;;;;4988484;28;20421;-65
2022/04/18 04:50:22;;;;;;;5.53;2.05;;;4.40;99.90;;;;;;4987945;28;20113;-65
2022/04/18 04:52:48;;;;;;;5.82;2.28;;;4.40;99.90;;;;;;4987128;28;20109;-65
2022/04/18 04:55:13;;;;;;;6.22;2.30;;;4.40;99.90;;;;;;4988082;28;20478;-65
2022/04/18 04:57:39;;;;;;;6.60;2.20;;;4.50;99.90;;;;;;4981622;28;20022;-65
2022/04/18 05:00:05;;;;;;;4.35;1.92;;;4.60;99.90;;;;;;4987805;28;20045;-64
2022/04/18 05:02:31;;;;;;;7.03;2.17;;;4.70;99.90;;;;;;4987329;28;20052;-63
2022/04/18 05:04:56;;;;;;;3.67;1.67;;;4.80;99.90;;;;;;4986889;28;20057;-64
2022/04/18 05:07:22;;;;;;;6.22;2.15;;;4.90;99.90;;;;;;4986476;28;20030;-65
2022/04/18 05:09:47;;;;;;;4.30;1.98;;;5.00;99.90;;;;;;4987047;28;20089;-65
2022/04/18 05:12:13;;;;;;;5.45;2.08;;;5.10;99.90;;;;;;4984442;28;20483;-65
2022/04/18 05:14:38;;;;;;;5.13;2.53;;;5.20;99.90;;;;;;4982980;28;20030;-65
2022/04/18 05:17:04;;;;;;;4.95;1.85;;;5.40;99.90;;;;;;4987138;28;20041;-65
2022/04/18 05:19:30;;;;;;;6.15;2.15;;;5.40;99.90;;;;;;4988483;28;20576;-65
2022/04/18 05:21:56;;;;;;;6.38;2.03;;;5.40;99.90;;;;;;4986243;28;20479;-65
2022/04/18 05:24:21;;;;;;;5.53;1.92;;;5.50;99.90;;;;;;4990525;28;20038;-65
2022/04/18 05:26:47;;;;;;;6.78;2.00;;;5.50;99.90;;;;;;4988436;28;20114;-65
2022/04/18 05:29:13;;;;;;;8.23;2.08;;;5.50;99.90;;;;;;4990336;28;20034;-65
2022/04/18 05:31:38;;;;;;;3.70;1.40;;;5.50;99.90;;;;;;4989574;28;20035;-65
2022/04/18 05:34:04;;;;;;;6.47;2.17;;;5.70;99.90;;;;;;4993282;28;20026;-65
2022/04/18 05:36:29;;;;;;;4.47;2.05;;;5.80;99.90;;;;;;4993896;28;20054;-65
2022/04/18 05:38:55;;;;;;;5.93;2.30;;;5.90;99.90;;;;;;4991755;28;20018;-65
2022/04/18 05:41:21;;;;;;;7.63;2.22;;;6.00;99.90;;;;;;4994633;28;20029;-65
2022/04/18 05:43:49;;;;;;;4.88;2.10;;;6.00;99.90;;;;;;4993435;28;20686;-65
2022/04/18 05:46:15;;;;;;;7.15;2.10;;;6.10;99.90;;;;;;4989261;28;20026;-65
2022/04/18 05:48:41;;;;;;;7.70;2.00;;;6.20;99.90;;;;;;4997951;28;20034;-65
2022/04/18 05:51:07;;;;;;;3.92;1.60;;;6.20;99.90;;;;;;4993044;28;20482;-65
2022/04/18 05:53:32;;;;;;;3.20;1.50;;;6.40;99.90;;;;;;4991146;28;20026;-65
2022/04/18 05:55:58;;;;;;;3.92;1.83;;;6.50;99.90;;;;;;4990713;28;20073;-65
2022/04/18 05:58:24;;;;;;;5.68;1.95;;;6.90;99.60;;;;;;4992212;28;20101;-65
2022/04/18 06:00:49;;;;;;;4.93;2.10;;;6.90;99.90;;;;;;4992939;28;20118;-65
2022/04/18 06:03:15;;;;;;;5.82;2.10;;;7.00;99.70;;;;;;4991487;28;20058;-65
2022/04/18 06:05:41;;;;;;;7.03;2.13;;;7.00;99.60;;;;;;4993151;28;20041;-65
2022/04/18 06:08:07;;;;;;;7.22;2.33;;;7.20;99.10;;;;;;4986760;28;20434;-65
2022/04/18 06:10:33;;;;;;;3.67;1.58;;;7.20;99.40;;;;;;4991958;28;20057;-65
2022/04/18 06:12:59;;;;;;;4.43;1.90;;;7.30;99.10;;;;;;4993700;28;20022;-65
2022/04/18 06:15:25;;;;;;;5.85;2.03;;;7.40;99.30;;;;;;4991980;28;20084;-65
2022/04/18 06:17:50;;;;;;;4.75;2.00;;;7.50;99.40;;;;;;4992213;28;20077;-65
2022/04/18 06:20:16;;;;;;;4.38;1.73;;;7.60;99.30;;;;;;4992339;28;20026;-65
2022/04/18 06:22:42;;;;;;;5.00;1.98;;;7.70;99.00;;;;;;4990306;28;20529;-65
2022/04/18 06:25:07;;;;;;;5.93;2.00;;;7.90;97.10;;;;;;4992036;28;20022;-65
2022/04/18 06:27:33;;;;;;;4.78;1.70;;;8.30;96.30;;;;;;4991164;28;20030;-65
2022/04/18 06:29:59;;;;;;;7.20;2.25;;;8.50;95.30;;;;;;4993026;28;20195;-65
2022/04/18 06:32:25;;;;;;;6.28;1.75;;;8.70;95.60;;;;;;4992358;28;20042;-65
2022/04/18 06:34:51;;;;;;;4.57;1.70;;;8.80;94.30;;;;;;4991503;28;20478;-65
2022/04/18 06:37:16;;;;;;;5.82;2.10;;;9.00;93.80;;;;;;4989789;28;20023;-65
2022/04/18 06:39:43;;;;;;;6.93;1.60;;;9.10;94.40;;;;;;4988238;28;20061;-65
2022/04/18 06:42:09;;;;;;;4.15;1.58;;;9.10;94.20;;;;;;4992816;28;20481;-65
2022/04/18 06:44:34;;;;;;;5.43;1.85;;;9.10;94.50;;;;;;4990574;28;20022;-65
2022/04/18 06:47:00;;;;;;;4.18;1.40;;;9.30;93.20;;;;;;4987989;28;20034;-65
2022/04/18 06:49:26;;;;;;;6.30;1.77;;;9.50;93.00;;;;;;4993060;28;20129;-65
2022/04/18 06:51:51;;;;;;;7.75;1.88;;;9.50;93.20;;;;;;4989773;28;20372;-65
2022/04/18 06:54:17;;;;;;;6.18;1.83;;;9.40;93.50;;;;;;4995609;28;20034;-65
2022/04/18 06:57:01;;;;;;;6.55;2.15;;;9.50;93.00;;;;;;4983784;28;20037;-65
2022/04/18 06:59:28;;;;;;;9.93;2.00;;;9.70;93.00;;;;;;4989745;28;20014;-65
2022/04/18 07:01:54;;;;;;;4.13;1.67;;;9.80;92.60;;;;;;4990874;28;20034;-65
2022/04/18 07:04:20;;;;;;;3.30;1.45;;;9.80;92.60;;;;;;4990487;28;20441;-65
2022/04/18 07:06:46;;;;;;;3.35;1.52;;;9.90;92.40;;;;;;4991349;28;20033;-65
2022/04/18 07:09:12;;;;;;;6.45;1.98;;;10.00;91.80;;;;;;4990461;28;20025;-65
2022/04/18 07:11:37;;;;;;;4.45;1.80;;;10.00;92.10;;;;;;4990078;28;20478;-65
2022/04/18 07:14:03;;;;;;;5.07;1.77;;;10.10;92.10;;;;;;4990403;28;20027;-65
2022/04/18 07:16:32;;;;;;;3.92;1.60;;;10.40;90.90;;;;;;4990388;28;20030;-65
2022/04/18 07:18:58;;;;;;;6.78;1.83;;;10.40;91.10;;;;;;4989769;28;20044;-65
2022/04/18 07:21:24;;;;;;;6.13;1.70;;;10.70;90.80;;;;;;4990972;28;20113;-65
2022/04/18 07:23:50;;;;;;;3.92;1.58;;;10.80;90.50;;;;;;4989013;28;20037;-65
2022/04/18 07:26:16;;;;;;;3.50;1.50;;;11.00;89.90;;;;;;4990190;28;20038;-65
2022/04/18 07:28:41;;;;;;;4.63;1.50;;;11.10;90.10;;;;;;4987887;28;20388;-65
2022/04/18 07:31:07;;;;;;;4.30;1.65;;;11.30;88.70;;;;;;4990392;28;20169;-65
2022/04/18 07:33:34;;;;;;;4.43;1.60;;;11.40;89.50;;;;;;4985842;28;20518;-65
2022/04/18 07:36:00;;;;;;;5.03;1.50;;;11.60;87.10;;;;;;4988935;28;20108;-65
2022/04/18 07:41:09;;;;;;;5.90;1.83;;;11.80;86.00;;;;;;4986539;28;20025;-65
2022/04/18 07:43:35;;;;;;;4.32;1.58;;;11.90;84.60;;;;;;4989742;28;20049;-65
2022/04/18 07:46:04;;;;;;;4.60;1.58;;;12.00;85.90;;;;;;4988753;28;20513;-65
2022/04/18 07:48:30;;;;;;;4.05;1.58;;;12.00;83.20;;;;;;4987829;28;20057;-65
2022/04/18 07:53:41;;;;;;;5.15;1.48;;;12.10;81.60;;;;;;4988082;28;20030;-65
2022/04/18 07:56:07;;;;;;;4.85;1.85;;;12.30;81.90;;;;;;4990028;28;20505;-65
2022/04/18 07:58:33;;;;;;;3.92;1.20;;;12.40;81.30;;;;;;4985945;28;20023;-65
2022/04/18 08:00:58;;;;;;;4.10;1.52;;;12.50;80.00;;;;;;4994367;28;20520;-65
2022/04/18 08:03:24;;;;;;;4.85;1.50;;;12.70;81.20;;;;;;4986434;28;20030;-65
2022/04/18 08:05:50;;;;;;;4.25;1.55;;;12.70;79.80;;;;;;4987176;28;20066;-65
2022/04/18 08:08:15;;;;;;;4.05;1.40;;;12.80;79.90;;;;;;4989661;28;20026;-65
2022/04/18 08:10:41;;;;;;;10.23;1.90;;;12.90;81.10;;;;;;4994304;28;20033;-65
2022/04/18 08:13:07;;;;;;;4.75;1.70;;;13.30;79.50;;;;;;4991767;28;20035;-65
2022/04/18 08:15:33;;;;;;;3.60;1.42;;;13.20;77.60;;;;;;4990098;28;20033;-65
2022/04/18 08:17:59;;;;;;;4.88;1.48;;;13.50;78.60;;;;;;4988794;28;20072;-65
2022/04/18 08:20:25;;;;;;;6.13;1.95;;;14.00;76.60;;;;;;5004379;28;20026;-65
2022/04/18 08:22:51;;;;;;;4.53;1.63;;;14.70;76.30;;;;;;4983856;28;20023;-65
2022/04/18 08:25:17;;;;;;;4.18;1.38;;;15.60;74.20;;;;;;4988179;28;20030;-64
2022/04/18 08:27:42;;;;;;;5.68;1.63;;;15.90;72.20;;;;;;4985085;28;21507;-63
2022/04/18 08:30:08;;;;;;;3.22;1.35;;;16.20;71.20;;;;;;4989077;28;20042;-63
2022/04/18 08:32:38;;;;;;;4.05;1.42;;;16.20;69.40;;;;;;4991024;28;20032;-63
2022/04/18 08:35:04;;;;;;;4.10;1.40;;;16.60;69.30;;;;;;4990625;28;20036;-64
2022/04/18 08:37:30;;;;;;;5.50;1.40;;;16.80;69.10;;;;;;4989997;28;20297;-63
2022/04/18 08:39:55;;;;;;;5.68;1.80;;;17.70;67.90;;;;;;4990546;28;20018;-63
2022/04/18 08:42:23;;;;;;;4.80;1.17;;;18.30;65.80;;;;;;4990964;28;20105;-63
2022/04/18 08:44:54;;;;;;;3.70;1.30;;;19.00;82.20;;;;;;4990057;28;20018;-64
2022/04/18 08:52:50;;;;;;;6.75;1.58;;;20.10;61.00;;;;;;4984132;28;20088;-64
2022/04/18 08:55:19;;;;;;;6.60;1.75;;;19.60;63.10;;;;;;4990238;28;20113;-64
2022/04/18 08:57:46;;;;;;;3.78;1.25;;;;;;;;;;4985603;28;20101;-64
2022/04/18 09:00:12;;;;;;;5.70;1.58;;;20.70;67.00;;;;;;4986009;28;20027;-64
2022/04/18 09:02:38;;;;;;;5.45;1.80;;;20.20;66.00;;;;;;4986917;28;20018;-64
2022/04/18 09:05:12;;;;;;;4.70;1.60;;;20.10;62.50;;;;;;4990475;28;20022;-64
2022/04/18 09:08:03;;;;;;;4.18;1.50;;;20.00;64.60;;;;;;4988463;28;20050;-64
2022/04/18 09:10:29;;;;;;;6.28;1.77;;;19.80;63.70;;;;;;4986490;28;20101;-64
2022/04/18 09:13:14;;;;;;;4.43;1.55;;;19.60;63.50;;;;;;4987589;28;20117;-64
2022/04/18 09:15:49;;;;;;;5.50;1.40;;;19.40;64.70;;;;;;4987599;28;20026;-64
2022/04/18 09:18:23;;;;;;;5.70;1.77;;;20.20;63.20;;;;;;4989299;28;20032;-64
2022/04/18 09:20:50;;;;;;;8.18;2.15;;;19.50;64.10;;;;;;4990006;28;20014;-64
2022/04/18 09:23:30;;;;;;;6.00;2.05;;;20.30;62.80;;;;;;4984679;28;20033;-65
2022/04/18 09:25:57;;;;;;;7.60;2.40;;;18.90;65.50;;;;;;4989434;28;20035;-64
2022/04/18 09:28:31;;;;;;;6.45;2.05;;;18.10;64.80;;;;;;4987777;28;20034;-65
2022/04/18 09:31:19;;;;;;;7.38;1.85;;;18.20;65.20;;;;;;4980275;28;20050;-65
2022/04/18 09:33:56;;;;;;;7.00;1.80;;;19.30;63.60;;;;;;4988083;28;20157;-65
2022/04/18 09:36:23;;;;;;;4.53;1.52;;;20.70;61.50;;;;;;4988630;28;20026;-64
2022/04/18 09:38:52;;;;;;;8.10;2.28;;;21.40;59.30;;;;;;4984042;28;20050;-64
2022/04/18 09:41:24;;;;;;;6.28;2.05;;;19.60;59.70;;;;;;4989950;28;20030;-64
2022/04/18 09:43:52;;;;;;;5.40;1.80;;;18.90;61.50;;;;;;4988408;28;20027;-64
2022/04/18 09:46:18;;;;;;;4.78;1.63;;;18.20;63.10;;;;;;4987593;28;20022;-64
2022/04/18 09:48:45;;;;;;;5.95;1.85;;;18.60;64.30;;;;;;4987406;28;20033;-64
2022/04/18 09:51:13;;;;;;;6.22;1.88;;;20.30;62.60;;;;;;4988298;28;20033;-64
2022/04/18 09:53:41;;;;;;;6.30;1.80;;;20.40;61.60;;;;;;4987917;28;20386;-64
2022/04/18 09:56:07;;;;;;;6.63;1.70;;;20.00;61.40;;;;;;4978949;28;20026;-64
2022/04/18 09:58:34;;;;;;;6.55;1.70;;;20.60;60.30;;;;;;4987099;28;20046;-64
2022/04/18 10:01:04;;;;;;;5.82;1.95;;;21.70;58.40;;;;;;4986264;28;20109;-64
2022/04/18 10:03:31;;;;;;;5.53;1.92;;;20.20;61.00;;;;;;4984969;28;20022;-64
2022/04/18 10:05:58;;;;;;;5.40;1.90;;;20.40;61.80;;;;;;4988301;28;20042;-64
2022/04/18 10:08:25;;;;;;;5.97;1.70;;;20.30;58.60;;;;;;4989124;28;20588;-64
2022/04/18 10:10:52;;;;;;;7.63;2.10;;;20.40;61.10;;;;;;4986947;28;20056;-64
2022/04/18 10:13:20;;;;;;;5.25;2.00;;;19.80;59.00;;;;;;4988212;28;20040;-64
2022/04/18 10:15:48;;;;;;;5.35;1.70;;;19.50;61.60;;;;;;4986529;28;20018;-64
2022/04/18 10:18:15;;;;;;;4.05;1.40;;;20.60;60.70;;;;;;4988430;28;20026;-64
2022/04/18 10:20:50;;;;;;;5.03;1.55;;;20.40;58.20;;;;;;4990580;28;20018;-64
2022/04/18 10:23:41;;;;;;;5.80;1.83;;;19.70;58.30;;;;;;4991159;28;20037;-64
2022/04/18 10:26:28;;;;;;;5.60;1.85;;;20.10;58.00;;;;;;4990380;28;20026;-64
2022/04/18 10:28:56;;;;;;;4.57;1.42;;;19.80;60.10;;;;;;4983612;28;20027;-64
2022/04/18 10:31:26;;;;;;;9.10;2.00;;;;;;;;;;4987805;28;20042;-64
2022/04/18 10:33:52;;;;;;;7.60;1.98;;;23.50;60.00;;;;;;4987463;28;20069;-65
2022/04/18 10:36:26;;;;;;;6.15;2.00;;;22.00;61.00;;;;;;4986911;28;20026;-65
2022/04/18 10:38:52;;;;;;;6.45;2.15;;;22.80;61.90;;;;;;4988367;28;20034;-64
2022/04/18 10:41:37;;;;;;;6.88;2.00;;;23.20;60.70;;;;;;4988929;28;20566;-64
2022/04/18 10:44:08;;;;;;;6.20;2.00;;;20.90;62.20;;;;;;4986706;28;20557;-66
2022/04/18 10:46:36;;;;;;;6.00;1.95;;;20.40;64.00;;;;;;4988698;28;20494;-66
2022/04/18 10:49:30;;;;;;;9.90;2.60;;;20.00;67.10;;;;;;4986859;28;20041;-66
2022/04/18 10:52:05;;;;;;;6.40;2.20;;;20.60;65.30;;;;;;4988403;28;20064;-66
2022/04/18 10:54:31;;;;;;;7.13;2.00;;;22.00;66.30;;;;;;4988231;28;20026;-66
2022/04/18 10:57:13;;;;;;;9.18;2.25;;;20.50;67.10;;;;;;4988715;28;20076;-66
2022/04/18 10:59:45;;;;;;;5.43;1.80;;;20.50;68.20;;;;;;4989802;28;20513;-66
2022/04/18 11:02:44;;;;;;;5.97;2.15;;;20.10;69.70;;;;;;4990265;28;20034;-66
2022/04/18 11:05:09;;;;;;;6.63;1.90;;;20.70;72.90;;;;;;4985297;28;20050;-66
2022/04/18 11:07:40;;;;;;;7.35;1.77;;;21.80;74.00;;;;;;4990309;28;20509;-66
2022/04/18 11:10:26;;;;;;;6.55;1.90;;;21.70;78.60;;;;;;4989723;28;20027;-66
2022/04/18 11:12:59;;;;;;;6.70;2.00;;;22.10;73.10;;;;;;4983049;28;20027;-66
2022/04/18 11:15:25;;;;;;;5.25;1.90;;;21.80;73.50;;;;;;4990661;28;20049;-66
2022/04/18 11:17:51;;;;;;;5.20;1.75;;;21.20;72.80;;;;;;4989297;28;20065;-65
2022/04/18 11:20:33;;;;;;;4.88;1.73;;;21.10;68.40;;;;;;4990664;28;20042;-66
2022/04/18 11:23:21;;;;;;;5.68;1.80;;;22.00;68.30;;;;;;4989396;28;20096;-66
2022/04/18 11:25:50;;;;;;;6.82;1.80;;;20.90;69.50;;;;;;4985107;28;20039;-66
2022/04/18 11:28:16;;;;;;;5.20;1.70;;;20.70;68.40;;;;;;4988161;28;20034;-66
2022/04/18 11:30:42;;;;;;;5.65;1.70;;;;;;;;;;4984444;28;20035;-66
2022/04/18 11:33:07;;;;;;;6.57;1.73;;;23.70;56.60;;;;;;4982464;28;20045;-66
2022/04/18 11:35:34;;;;;;;11.18;5.60;;;21.80;54.50;;;;;;4990312;28;20026;-66
2022/04/18 11:38:09;;;;;;;5.90;1.70;;;21.10;55.60;;;;;;4987832;28;20034;-66
2022/04/18 11:40:37;;;;;;;6.25;2.15;;;21.50;55.60;;;;;;4990353;28;20019;-66
2022/04/18 11:43:13;;;;;;;8.48;2.53;;;22.80;56.50;;;;;;4987641;28;20026;-66
2022/04/18 11:45:42;;;;;;;16.13;4.70;;;22.30;56.40;;;;;;4987293;28;20158;-66
2022/04/18 11:48:11;;;;;;;22.35;11.13;;;22.90;55.90;;;;;;4988710;28;20057;-66
2022/04/18 11:50:40;;;;;;;7.85;2.65;;;24.50;54.10;;;;;;4984287;28;20698;-66
2022/04/18 11:53:08;;;;;;;37.53;16.00;;;24.00;52.20;;;;;;4983779;28;20027;-66
2022/04/18 11:55:49;;;;;;;20.48;11.93;;;24.00;54.00;;;;;;4994089;28;20050;-66
2022/04/18 11:58:20;;;;;;;56.55;27.15;;;23.30;55.10;;;;;;4988162;28;20030;-66
2022/04/18 12:09:21;;;;;;;7.10;2.35;;;22.90;54.00;;;;;;4996178;28;20045;-66
2022/04/18 12:11:46;;;;;;;11.27;5.75;;;22.90;54.20;;;;;;4989329;28;20038;-67
2022/04/18 12:14:12;;;;;;;4.65;1.40;;;23.90;54.90;;;;;;4991716;28;20027;-66
2022/04/18 12:16:39;;;;;;;5.90;2.13;;;24.40;52.30;;;;;;4987931;28;20026;-66
2022/04/18 12:19:11;;;;;;;5.43;1.73;;;24.00;52.20;;;;;;4988165;28;20467;-66
2022/04/18 12:21:37;;;;;;;5.90;1.65;;;24.50;51.90;;;;;;4987407;28;20018;-66
2022/04/18 12:24:03;;;;;;;13.32;6.90;;;23.20;52.30;;;;;;4989071;28;20441;-66
2022/04/18 12:26:33;;;;;;;17.65;11.02;;;25.20;52.20;;;;;;4988139;28;20029;-66
2022/04/18 12:29:00;;;;;;;33.45;19.45;;;23.10;53.40;;;;;;4988402;28;20390;-66
2022/04/18 12:31:26;;;;;;;12.10;5.63;;;24.00;53.40;;;;;;4989131;28;20141;-66
2022/04/18 12:33:52;;;;;;;8.35;3.13;;;26.20;53.10;;;;;;4986791;28;20113;-66
2022/04/18 12:36:24;;;;;;;5.72;1.75;;;26.30;49.50;;;;;;4989662;28;20101;-66
2022/04/18 12:38:50;;;;;;;8.70;3.28;;;24.10;51.30;;;;;;4981401;28;20538;-66
2022/04/18 12:41:33;;;;;;;26.88;14.32;;;24.10;51.30;;;;;;4988110;28;20402;-66
2022/04/18 12:43:59;;;;;;;4.75;1.50;;;22.80;53.20;;;;;;4977823;28;20478;-66
2022/04/18 12:46:32;;;;;;;103.30;38.90;;;24.60;51.00;;;;;;4987379;28;20045;-66
2022/04/18 12:49:04;;;;;;;31.77;17.05;;;24.90;50.70;;;;;;4987475;28;20026;-67
2022/04/18 12:51:37;;;;;;;8.30;4.15;;;24.10;52.20;;;;;;4984497;28;20058;-66
2022/04/18 12:54:03;;;;;;;9.20;4.40;;;23.80;52.50;;;;;;4987680;28;20108;-66
2022/04/18 12:56:29;;;;;;;6.10;2.30;;;24.30;50.90;;;;;;4984994;28;20053;-66
2022/04/18 12:58:54;;;;;;;6.65;2.40;;;26.80;51.00;;;;;;4988215;28;20030;-66
2022/04/18 13:01:25;;;;;;;14.35;5.15;;;27.80;50.10;;;;;;4989142;28;20659;-66
2022/04/18 13:03:52;;;;;;;17.35;6.03;;;28.80;47.50;;;;;;4986065;28;20116;-66
2022/04/18 13:06:25;;;;;;;15.82;9.43;;;28.30;47.20;;;;;;4988197;28;20019;-66
2022/04/18 13:08:57;;;;;;;23.90;13.05;;;26.60;47.40;;;;;;4987871;28;20022;-66
2022/04/18 13:11:22;;;;;;;6.18;2.53;;;26.50;47.80;;;;;;4988309;28;20105;-66
2022/04/18 13:13:48;;;;;;;12.38;4.38;;;26.40;47.90;;;;;;4988290;28;20426;-66
2022/04/18 13:16:24;;;;;;;10.85;5.45;;;26.30;48.30;;;;;;4986805;28;20025;-66
2022/04/18 13:19:01;;;;;;;4.45;1.30;;;26.60;49.30;;;;;;4987394;28;20398;-66
2022/04/18 13:21:28;;;;;;;4.47;1.48;;;24.50;47.90;;;;;;4980945;28;20022;-66
2022/04/18 13:23:55;;;;;;;4.20;1.30;;;25.50;47.00;;;;;;4988184;28;20105;-66
2022/04/18 13:26:20;;;;;;;4.07;1.40;;;25.40;48.50;;;;;;4989444;28;20030;-66